createdAt,value
2023-01-29T00:00:14.931Z,22.14
2023-01-29T00:02:42.938Z,22.13
2023-01-29T00:05:26.535Z,22.10
2023-01-29T00:07:57.543Z,22.11
2023-01-29T00:10:26.100Z,22.05
2023-01-29T00:12:53.648Z,22.16
2023-01-29T00:15:21.739Z,22.15
2023-01-29T00:17:49.288Z,22.12
2023-01-29T00:20:17.949Z,22.13
2023-01-29T00:22:45.691Z,22.16
2023-01-29T00:25:14.690Z,22.16
2023-01-29T00:27:42.544Z,22.13
2023-01-29T00:30:11.452Z,22.02
2023-01-29T00:32:39.154Z,22.17
2023-01-29T00:35:08.280Z,22.13
2023-01-29T00:37:36.524Z,22.16
2023-01-29T00:40:04.623Z,22.16
2023-01-29T00:42:34.408Z,22.14
2023-01-29T00:45:02.012Z,22.10
2023-01-29T00:47:29.544Z,22.09
2023-01-29T00:49:57.411Z,22.14
2023-01-29T00:52:25.712Z,22.16
2023-01-29T00:54:54.263Z,22.18
2023-01-29T00:57:21.928Z,22.15
2023-01-29T00:59:51.101Z,22.16
2023-01-29T01:02:19.327Z,22.12
2023-01-29T01:04:46.879Z,22.17
2023-01-29T01:07:14.369Z,22.18
2023-01-29T01:09:42.279Z,22.19
2023-01-29T01:12:09.823Z,22.14
2023-01-29T01:14:37.338Z,22.17
2023-01-29T01:17:06.318Z,22.17
2023-01-29T01:19:34.716Z,22.21
2023-01-29T01:22:02.297Z,22.18
2023-01-29T01:24:30.031Z,22.17
2023-01-29T01:26:57.698Z,22.13
2023-01-29T01:29:25.366Z,22.11
2023-01-29T01:31:54.525Z,22.18
2023-01-29T01:34:23.491Z,22.15
2023-01-29T01:36:51.567Z,22.13
2023-01-29T01:39:19.069Z,22.15
2023-01-29T01:41:46.821Z,22.17
2023-01-29T01:44:47.164Z,22.15
2023-01-29T01:47:16.238Z,22.14
2023-01-29T01:49:46.220Z,22.14
2023-01-29T01:52:16.485Z,22.16
2023-01-29T01:54:45.109Z,22.12
2023-01-29T01:57:17.458Z,22.14
2023-01-29T01:59:50.479Z,22.15
2023-01-29T02:02:18.833Z,22.13
2023-01-29T02:04:49.169Z,22.13
2023-01-29T02:07:16.673Z,22.14
2023-01-29T02:09:50.877Z,22.10
2023-01-29T02:12:20.151Z,22.13
2023-01-29T02:14:48.806Z,22.13
2023-01-29T02:17:18.768Z,22.15
2023-01-29T02:20:01.859Z,22.10
2023-01-29T02:23:22.399Z,22.11
2023-01-29T02:26:15.783Z,22.17
2023-01-29T02:28:50.652Z,22.15
2023-01-29T02:31:27.956Z,22.14
2023-01-29T02:34:08.913Z,22.09
2023-01-29T02:36:44.470Z,22.13
2023-01-29T02:39:19.168Z,22.15
2023-01-29T02:41:55.508Z,22.08
2023-01-29T02:44:30.376Z,22.15
2023-01-29T02:47:04.915Z,22.06
2023-01-29T02:49:36.123Z,22.13
2023-01-29T02:52:07.745Z,22.13
2023-01-29T02:54:44.259Z,22.14
2023-01-29T02:57:18.532Z,22.11
2023-01-29T02:59:50.994Z,22.10
2023-01-29T03:02:25.480Z,21.54
2023-01-29T03:04:59.263Z,21.97
2023-01-29T03:07:32.964Z,22.03
2023-01-29T03:10:03.779Z,22.01
2023-01-29T03:12:34.180Z,21.70
2023-01-29T03:15:11.353Z,21.97
2023-01-29T03:17:47.347Z,22.00
2023-01-29T03:20:19.633Z,22.04
2023-01-29T03:22:53.302Z,22.04
2023-01-29T03:25:24.432Z,22.06
2023-01-29T03:27:54.452Z,21.99
2023-01-29T03:30:26.176Z,22.05
2023-01-29T03:33:04.792Z,22.06
2023-01-29T03:35:37.030Z,22.07
2023-01-29T03:38:08.528Z,22.04
2023-01-29T03:40:44.459Z,22.07
2023-01-29T03:43:19.197Z,22.09
2023-01-29T03:46:00.677Z,22.08
2023-01-29T03:48:35.258Z,22.09
2023-01-29T03:51:15.225Z,22.08
2023-01-29T03:53:50.971Z,22.11
2023-01-29T03:56:39.941Z,22.03
2023-01-29T03:59:14.092Z,22.10
2023-01-29T04:02:06.919Z,22.11
2023-01-29T04:04:36.392Z,22.09
2023-01-29T04:07:10.275Z,22.07
2023-01-29T04:09:42.720Z,22.11
2023-01-29T04:12:14.964Z,22.10
2023-01-29T04:14:44.205Z,22.11
2023-01-29T04:17:16.840Z,22.09
2023-01-29T04:20:12.585Z,22.08
2023-01-29T04:22:49.525Z,22.02
2023-01-29T04:25:20.238Z,22.06
2023-01-29T04:27:57.844Z,22.08
2023-01-29T04:30:36.372Z,22.04
2023-01-29T04:33:17.752Z,22.12
2023-01-29T04:36:03.989Z,22.12
2023-01-29T04:38:43.240Z,22.06
2023-01-29T04:41:19.850Z,22.07
2023-01-29T04:43:58.844Z,22.08
2023-01-29T04:46:34.235Z,22.07
2023-01-29T04:49:15.731Z,22.11
2023-01-29T04:51:51.667Z,22.09
2023-01-29T04:54:28.992Z,22.09
2023-01-29T04:57:04.068Z,22.07
2023-01-29T04:59:36.670Z,22.10
2023-01-29T05:02:06.591Z,22.07
2023-01-29T05:04:38.694Z,22.09
2023-01-29T05:07:11.645Z,22.06
2023-01-29T05:09:40.378Z,22.10
2023-01-29T05:12:11.255Z,22.10
2023-01-29T05:14:43.259Z,22.11
2023-01-29T05:17:16.165Z,22.09
2023-01-29T05:19:46.031Z,22.09
2023-01-29T05:22:16.967Z,22.11
2023-01-29T05:24:44.857Z,22.10
2023-01-29T05:27:18.922Z,22.07
2023-01-29T05:29:48.184Z,22.03
2023-01-29T05:32:16.155Z,22.06
2023-01-29T05:34:45.494Z,22.08
2023-01-29T05:37:13.101Z,22.02
2023-01-29T05:39:41.130Z,22.06
2023-01-29T05:42:09.149Z,22.06
2023-01-29T05:44:36.685Z,22.04
2023-01-29T05:47:04.242Z,22.07
2023-01-29T05:49:31.965Z,22.08
2023-01-29T05:52:00.908Z,22.02
2023-01-29T05:54:29.129Z,22.04
2023-01-29T05:56:57.032Z,22.06
2023-01-29T05:59:25.224Z,22.10
2023-01-29T06:01:52.865Z,22.09
2023-01-29T06:04:20.563Z,22.03
2023-01-29T06:06:48.149Z,22.04
2023-01-29T06:09:17.033Z,22.06
2023-01-29T06:11:44.918Z,22.06
2023-01-29T06:14:12.513Z,22.10
2023-01-29T06:16:40.079Z,22.11
2023-01-29T06:19:07.790Z,22.11
2023-01-29T06:21:36.078Z,22.11
2023-01-29T06:24:04.892Z,22.03
2023-01-29T06:26:34.550Z,22.10
2023-01-29T06:29:02.870Z,22.10
2023-01-29T06:31:38.871Z,22.12
2023-01-29T06:34:07.656Z,22.06
2023-01-29T06:36:36.417Z,22.14
2023-01-29T06:39:05.287Z,22.13
2023-01-29T06:41:35.734Z,22.11
2023-01-29T06:44:03.923Z,22.12
2023-01-29T06:46:31.820Z,22.10
2023-01-29T06:49:00.356Z,22.10
2023-01-29T06:51:28.088Z,22.14
2023-01-29T06:53:55.759Z,22.11
2023-01-29T06:56:25.156Z,22.13
2023-01-29T06:58:54.458Z,22.12
2023-01-29T07:01:35.238Z,22.14
2023-01-29T07:04:04.251Z,22.15
2023-01-29T07:06:31.998Z,22.15
2023-01-29T07:08:59.940Z,22.11
2023-01-29T07:11:27.627Z,22.14
2023-01-29T07:13:57.252Z,22.15
2023-01-29T07:16:25.995Z,22.12
2023-01-29T07:18:53.748Z,22.11
2023-01-29T07:21:21.347Z,22.12
2023-01-29T07:23:48.980Z,22.15
2023-01-29T07:26:17.692Z,22.14
2023-01-29T07:28:46.698Z,22.16
2023-01-29T07:31:16.549Z,22.16
2023-01-29T07:33:44.795Z,22.17
2023-01-29T07:36:13.611Z,22.17
2023-01-29T07:38:41.833Z,22.16
2023-01-29T07:41:12.027Z,22.13
2023-01-29T07:43:39.587Z,22.12
2023-01-29T07:46:08.311Z,22.14
2023-01-29T07:48:38.269Z,22.15
2023-01-29T07:51:07.159Z,22.15
2023-01-29T07:53:35.850Z,22.17
2023-01-29T07:56:04.263Z,22.15
2023-01-29T07:58:32.236Z,22.14
2023-01-29T08:01:00.604Z,22.09
2023-01-29T08:03:28.213Z,22.11
2023-01-29T08:05:58.200Z,22.15
2023-01-29T08:08:26.116Z,22.13
2023-01-29T08:10:53.656Z,22.12
2023-01-29T08:13:21.291Z,22.11
2023-01-29T08:15:49.071Z,22.13
2023-01-29T08:18:16.580Z,22.10
2023-01-29T08:20:44.102Z,22.13
2023-01-29T08:23:15.099Z,22.12
2023-01-29T08:25:43.100Z,22.10
2023-01-29T08:28:11.247Z,22.11
2023-01-29T08:30:39.005Z,22.10
2023-01-29T08:33:06.608Z,22.10
2023-01-29T08:35:34.222Z,22.11
2023-01-29T08:38:02.979Z,22.12
2023-01-29T08:40:33.833Z,22.08
2023-01-29T08:43:03.987Z,21.59
2023-01-29T08:45:34.957Z,21.89
2023-01-29T08:48:03.086Z,22.05
2023-01-29T08:50:30.748Z,22.01
2023-01-29T08:52:59.365Z,22.11
2023-01-29T08:55:27.451Z,22.09
2023-01-29T08:57:56.492Z,22.11
2023-01-29T09:00:24.280Z,22.08
2023-01-29T09:02:52.210Z,22.07
2023-01-29T09:05:20.596Z,22.03
2023-01-29T09:07:48.150Z,22.05
2023-01-29T09:10:17.251Z,22.06
2023-01-29T09:12:45.073Z,22.08
2023-01-29T09:15:14.066Z,22.03
2023-01-29T09:17:41.763Z,22.08
2023-01-29T09:20:10.895Z,22.06
2023-01-29T09:22:38.778Z,22.03
2023-01-29T09:25:07.599Z,22.11
2023-01-29T09:27:35.238Z,22.09
2023-01-29T09:30:03.198Z,22.08
2023-01-29T09:35:22.735Z,22.09
2023-01-29T09:37:50.709Z,22.10
2023-01-29T09:40:25.126Z,22.09
2023-01-29T09:42:57.957Z,22.13
2023-01-29T09:45:28.708Z,22.11
2023-01-29T09:48:00.951Z,22.12
2023-01-29T09:50:32.226Z,22.11
2023-01-29T09:53:05.191Z,22.10
2023-01-29T09:55:37.681Z,22.12
2023-01-29T09:58:13.120Z,22.11
2023-01-29T10:00:52.023Z,22.14
2023-01-29T10:03:40.517Z,22.14
2023-01-29T10:06:21.613Z,22.11
2023-01-29T10:09:19.450Z,22.15
2023-01-29T10:12:00.909Z,22.03
2023-01-29T10:14:36.713Z,22.02
2023-01-29T10:17:19.436Z,22.07
2023-01-29T10:20:10.854Z,22.11
2023-01-29T10:23:03.627Z,22.12
2023-01-29T10:25:36.310Z,22.13
2023-01-29T10:28:15.595Z,22.13
2023-01-29T10:30:49.207Z,22.13
2023-01-29T10:33:26.292Z,22.12
2023-01-29T10:36:00.955Z,22.13
2023-01-29T10:38:47.820Z,22.06
2023-01-29T10:41:25.625Z,22.10
2023-01-29T10:44:05.436Z,22.11
2023-01-29T10:46:52.649Z,22.15
2023-01-29T10:49:32.285Z,22.13
2023-01-29T10:52:21.094Z,22.14
2023-01-29T10:55:03.741Z,22.10
2023-01-29T10:57:48.155Z,22.11
2023-01-29T11:00:22.219Z,22.11
2023-01-29T11:02:52.510Z,22.12
2023-01-29T11:05:28.018Z,22.12
2023-01-29T11:08:05.760Z,22.13
2023-01-29T11:10:39.456Z,22.13
2023-01-29T11:13:13.256Z,22.12
2023-01-29T11:15:41.209Z,22.13
2023-01-29T11:18:11.385Z,22.14
2023-01-29T11:20:40.218Z,22.12
2023-01-29T11:23:25.894Z,22.10
2023-01-29T11:25:54.852Z,22.13
2023-01-29T11:28:38.814Z,22.10
2023-01-29T11:31:17.899Z,22.13
2023-01-29T11:33:47.549Z,22.11
2023-01-29T11:36:22.186Z,22.12
2023-01-29T11:39:11.572Z,22.07
2023-01-29T11:41:45.314Z,22.11
2023-01-29T11:44:21.504Z,22.13
2023-01-29T11:46:50.513Z,22.12
2023-01-29T11:49:32.268Z,22.09
2023-01-29T11:52:02.915Z,22.12
2023-01-29T11:54:36.672Z,22.10
2023-01-29T11:57:04.993Z,22.09
2023-01-29T11:59:43.765Z,22.11
2023-01-29T12:02:23.731Z,22.10
2023-01-29T12:04:52.458Z,22.12
2023-01-29T12:07:20.560Z,22.12
2023-01-29T12:09:55.867Z,22.12
2023-01-29T12:12:33.707Z,22.11
2023-01-29T12:15:23.266Z,22.14
2023-01-29T12:18:02.227Z,22.12
2023-01-29T12:20:36.848Z,22.12
2023-01-29T12:23:16.610Z,22.09
2023-01-29T12:25:57.050Z,22.11
2023-01-29T12:28:37.719Z,22.00
2023-01-29T12:31:29.059Z,22.11
2023-01-29T12:34:05.407Z,22.12
2023-01-29T12:36:38.894Z,22.11
2023-01-29T12:39:06.689Z,22.08
2023-01-29T12:41:41.785Z,22.10
2023-01-29T12:44:17.534Z,22.08
2023-01-29T12:46:49.475Z,21.99
2023-01-29T12:49:20.149Z,22.01
2023-01-29T12:51:55.529Z,22.08
2023-01-29T12:54:33.935Z,22.11
2023-01-29T12:57:09.500Z,22.10
2023-01-29T12:59:42.295Z,22.13
2023-01-29T13:02:21.988Z,22.13
2023-01-29T13:04:57.747Z,22.11
2023-01-29T13:07:31.417Z,22.12
2023-01-29T13:10:08.074Z,22.11
2023-01-29T13:12:40.402Z,22.10
2023-01-29T13:15:21.209Z,22.13
2023-01-29T13:17:53.486Z,22.12
2023-01-29T13:20:25.535Z,22.11
2023-01-29T13:22:56.629Z,22.09
2023-01-29T13:25:24.138Z,22.09
2023-01-29T13:27:53.910Z,22.12
2023-01-29T13:30:26.969Z,22.10
2023-01-29T13:32:55.887Z,22.12
2023-01-29T13:35:24.102Z,22.10
2023-01-29T13:37:54.318Z,22.10
2023-01-29T13:40:25.822Z,22.12
2023-01-29T13:42:58.401Z,22.11
2023-01-29T13:45:34.099Z,22.12
2023-01-29T13:48:11.156Z,22.12
2023-01-29T13:50:42.794Z,22.11
2023-01-29T13:53:22.556Z,22.06
2023-01-29T13:55:50.200Z,22.08
2023-01-29T13:58:54.714Z,22.07
2023-01-29T14:01:55.505Z,22.09
2023-01-29T14:04:25.985Z,22.08
2023-01-29T14:06:54.608Z,22.08
2023-01-29T14:09:56.615Z,22.04
2023-01-29T14:12:50.673Z,22.08
2023-01-29T14:15:34.420Z,22.08
2023-01-29T14:18:15.314Z,22.07
2023-01-29T14:20:53.859Z,22.08
2023-01-29T14:23:29.773Z,22.08
2023-01-29T14:25:59.944Z,22.11
2023-01-29T14:28:30.990Z,22.10
2023-01-29T14:31:01.229Z,22.13
2023-01-29T14:33:35.280Z,22.10
2023-01-29T14:36:06.366Z,22.08
2023-01-29T14:38:34.553Z,22.08
2023-01-29T14:41:25.649Z,22.10
2023-01-29T14:44:32.521Z,22.06
2023-01-29T14:47:02.974Z,22.07
2023-01-29T14:49:49.627Z,22.07
2023-01-29T14:52:19.165Z,22.09
2023-01-29T14:54:48.923Z,22.00
2023-01-29T14:57:18.741Z,21.85
2023-01-29T14:59:49.931Z,21.98
2023-01-29T15:02:23.039Z,21.94
2023-01-29T15:04:54.967Z,21.40
2023-01-29T15:07:30.505Z,21.76
2023-01-29T15:10:21.390Z,21.88
2023-01-29T15:12:56.200Z,21.93
2023-01-29T15:15:33.426Z,21.94
2023-01-29T15:18:08.559Z,22.03
2023-01-29T15:20:37.418Z,22.00
2023-01-29T15:23:27.480Z,22.02
2023-01-29T15:25:57.950Z,22.00
2023-01-29T15:28:29.376Z,22.02
2023-01-29T15:30:59.731Z,22.04
2023-01-29T15:33:30.337Z,22.01
2023-01-29T15:36:07.421Z,22.02
2023-01-29T15:38:36.868Z,22.01
2023-01-29T15:41:17.004Z,22.02
2023-01-29T15:43:47.890Z,22.08
2023-01-29T15:46:23.763Z,22.05
2023-01-29T15:48:58.163Z,22.07
2023-01-29T15:51:28.427Z,22.09
2023-01-29T15:53:59.562Z,22.04
2023-01-29T15:56:31.890Z,22.04
2023-01-29T15:59:07.328Z,22.07
2023-01-29T16:01:38.360Z,22.09
2023-01-29T16:04:14.353Z,22.08
2023-01-29T16:06:44.320Z,22.08
2023-01-29T16:09:18.972Z,22.09
2023-01-29T16:11:48.464Z,22.10
2023-01-29T16:14:19.887Z,22.07
2023-01-29T16:16:48.081Z,22.07
2023-01-29T16:19:28.023Z,22.06
2023-01-29T16:21:59.828Z,22.07
2023-01-29T16:24:31.551Z,22.07
2023-01-29T16:27:01.891Z,22.09
2023-01-29T16:29:33.196Z,22.11
2023-01-29T16:32:03.449Z,22.07
2023-01-29T16:34:37.974Z,22.08
2023-01-29T16:37:09.153Z,22.12
2023-01-29T16:39:40.258Z,22.10
2023-01-29T16:42:22.635Z,22.09
2023-01-29T16:44:53.826Z,22.10
2023-01-29T16:47:27.006Z,22.12
2023-01-29T16:49:57.612Z,22.10
2023-01-29T16:52:28.068Z,22.10
2023-01-29T16:55:15.990Z,22.10
2023-01-29T16:57:48.305Z,22.09
2023-01-29T17:00:22.816Z,22.09
2023-01-29T17:02:55.206Z,22.10
2023-01-29T17:05:28.774Z,22.09
2023-01-29T17:07:57.740Z,22.09
2023-01-29T17:10:28.100Z,22.11
2023-01-29T17:12:58.283Z,22.06
2023-01-29T17:15:44.195Z,22.06
2023-01-29T17:18:18.510Z,22.10
2023-01-29T17:20:48.597Z,22.07
2023-01-29T17:23:16.633Z,22.04
2023-01-29T17:25:45.910Z,22.07
2023-01-29T17:28:15.945Z,22.11
2023-01-29T17:30:56.698Z,22.10
2023-01-29T17:33:33.073Z,22.10
2023-01-29T17:36:02.611Z,22.09
2023-01-29T17:38:31.797Z,22.07
2023-01-29T17:41:06.512Z,22.09
2023-01-29T17:43:35.579Z,22.10
2023-01-29T17:46:03.896Z,22.07
2023-01-29T17:48:31.670Z,22.10
2023-01-29T17:51:04.734Z,22.09
2023-01-29T17:53:45.261Z,22.07
2023-01-29T17:56:19.000Z,22.09
2023-01-29T17:58:46.856Z,22.10
2023-01-29T18:01:14.403Z,22.11
2023-01-29T18:03:42.539Z,22.09
2023-01-29T18:06:17.652Z,22.10
2023-01-29T18:08:45.238Z,22.11
2023-01-29T18:11:13.257Z,22.07
2023-01-29T18:13:40.775Z,22.11
2023-01-29T18:16:08.820Z,22.10
2023-01-29T18:18:39.450Z,22.07
2023-01-29T18:21:07.491Z,22.07
2023-01-29T18:23:36.913Z,22.08
2023-01-29T18:26:05.008Z,22.07
2023-01-29T18:28:32.975Z,22.09
2023-01-29T18:31:01.765Z,21.95
2023-01-29T18:33:29.665Z,22.06
2023-01-29T18:35:57.721Z,22.01
2023-01-29T18:38:25.794Z,22.07
2023-01-29T18:41:02.190Z,22.08
2023-01-29T18:43:29.793Z,22.04
2023-01-29T18:45:58.727Z,22.07
2023-01-29T18:48:26.471Z,22.04
2023-01-29T18:50:54.161Z,22.02
2023-01-29T18:53:21.651Z,22.03
2023-01-29T18:55:57.949Z,22.02
2023-01-29T18:58:32.736Z,22.06
2023-01-29T19:01:05.464Z,22.06
2023-01-29T19:03:33.234Z,22.04
2023-01-29T19:06:01.680Z,22.09
2023-01-29T19:08:29.786Z,22.05
2023-01-29T19:10:58.999Z,22.05
2023-01-29T19:13:26.917Z,22.07
2023-01-29T19:15:54.527Z,22.10
2023-01-29T19:18:22.385Z,22.07
2023-01-29T19:20:50.091Z,22.07
2023-01-29T19:23:17.645Z,22.08
2023-01-29T19:25:45.693Z,22.07
2023-01-29T19:28:14.998Z,22.08
2023-01-29T19:30:42.835Z,22.06
2023-01-29T19:33:10.531Z,22.07
2023-01-29T19:35:38.237Z,22.07
2023-01-29T19:38:05.769Z,22.06
2023-01-29T19:40:33.296Z,22.07
2023-01-29T19:43:00.921Z,21.97
2023-01-29T19:45:49.856Z,22.04
2023-01-29T19:48:17.699Z,22.06
2023-01-29T19:50:52.000Z,22.07
2023-01-29T19:53:20.215Z,22.10
2023-01-29T19:55:47.968Z,22.09
2023-01-29T19:58:15.617Z,21.99
2023-01-29T20:00:44.713Z,22.12
2023-01-29T20:03:12.487Z,22.09
2023-01-29T20:05:40.110Z,22.06
2023-01-29T20:08:07.770Z,22.06
2023-01-29T20:10:35.489Z,22.06
2023-01-29T20:13:03.192Z,22.06
2023-01-29T20:15:30.978Z,22.04
2023-01-29T20:17:59.950Z,22.04
2023-01-29T20:20:29.826Z,22.04
2023-01-29T20:23:00.454Z,22.00
2023-01-29T20:25:28.177Z,22.02
2023-01-29T20:27:55.663Z,21.96
2023-01-29T20:30:23.314Z,21.99
2023-01-29T20:32:51.208Z,22.02
2023-01-29T20:35:20.312Z,21.97
2023-01-29T20:37:48.078Z,21.97
2023-01-29T20:40:16.365Z,21.97
2023-01-29T20:42:44.760Z,21.94
2023-01-29T20:45:12.902Z,21.96
2023-01-29T20:47:40.580Z,21.95
2023-01-29T20:50:09.219Z,21.92
2023-01-29T20:52:39.508Z,21.94
2023-01-29T20:55:10.058Z,21.94
2023-01-29T20:57:38.316Z,21.94
2023-01-29T21:00:08.017Z,21.95
2023-01-29T21:02:35.681Z,21.94
2023-01-29T21:05:03.833Z,21.92
2023-01-29T21:07:31.529Z,21.88
2023-01-29T21:10:00.643Z,21.93
2023-01-29T21:12:28.218Z,21.90
2023-01-29T21:14:55.779Z,21.90
2023-01-29T21:17:23.328Z,21.88
2023-01-29T21:19:51.222Z,21.87
2023-01-29T21:22:18.766Z,21.84
2023-01-29T21:24:46.311Z,21.88
2023-01-29T21:27:15.727Z,21.87
2023-01-29T21:29:43.724Z,21.93
2023-01-29T21:32:11.303Z,21.93
2023-01-29T21:34:38.782Z,21.89
2023-01-29T21:37:06.231Z,21.88
2023-01-29T21:39:33.753Z,21.91
2023-01-29T21:42:01.779Z,21.94
2023-01-29T21:44:32.016Z,21.88
2023-01-29T21:47:01.676Z,21.91
2023-01-29T21:49:29.219Z,21.91
2023-01-29T21:51:56.795Z,21.91
2023-01-29T21:54:24.847Z,21.89
2023-01-29T21:56:52.397Z,21.89
2023-01-29T21:59:19.943Z,21.87
2023-01-29T22:01:48.964Z,21.88
2023-01-29T22:04:16.628Z,21.93
2023-01-29T22:06:44.165Z,21.89
2023-01-29T22:09:11.653Z,21.88
2023-01-29T22:11:40.862Z,21.93
2023-01-29T22:14:08.493Z,21.88
2023-01-29T22:16:36.121Z,21.89
2023-01-29T22:19:05.236Z,21.88
2023-01-29T22:21:34.456Z,21.90
2023-01-29T22:24:03.733Z,21.81
2023-01-29T22:26:31.223Z,21.85
2023-01-29T22:28:58.706Z,21.84
2023-01-29T22:31:26.281Z,21.88
2023-01-29T22:33:54.052Z,21.87
2023-01-29T22:36:23.246Z,21.87
2023-01-29T22:38:50.765Z,21.80
2023-01-29T22:41:18.851Z,21.70
2023-01-29T22:43:46.852Z,21.76
2023-01-29T22:46:14.478Z,21.79
2023-01-29T22:48:41.941Z,21.87
2023-01-29T22:51:10.531Z,21.86
2023-01-29T22:53:40.612Z,21.67
2023-01-29T22:56:09.250Z,21.71
2023-01-29T22:58:36.856Z,21.73
2023-01-29T23:01:04.573Z,21.81
2023-01-29T23:03:32.123Z,21.74
2023-01-29T23:05:59.790Z,21.82
2023-01-29T23:08:27.503Z,21.79
2023-01-29T23:10:56.416Z,21.69
2023-01-29T23:13:24.188Z,21.78
2023-01-29T23:15:58.732Z,21.79
2023-01-29T23:18:26.232Z,21.67
2023-01-29T23:20:57.366Z,21.64
2023-01-29T23:23:24.866Z,21.68
2023-01-29T23:25:59.400Z,21.80
2023-01-29T23:28:26.934Z,21.77
2023-01-29T23:30:54.507Z,21.79
2023-01-29T23:33:22.322Z,21.81
2023-01-29T23:35:49.933Z,21.74
2023-01-29T23:38:17.564Z,21.78
2023-01-29T23:40:46.852Z,21.77
2023-01-29T23:43:15.825Z,21.79
2023-01-29T23:45:43.783Z,21.78
2023-01-29T23:48:11.309Z,21.80
2023-01-29T23:50:38.844Z,21.82
2023-01-29T23:53:06.481Z,21.84
2023-01-29T23:55:33.954Z,21.81
2023-01-29T23:58:01.477Z,21.83
